Time;durP1;ratioP1;P1;durP2;ratioP2;P2;SDS_P1;SDS_P2;PMS_P1;PMS_P2;Temp;Humidity;BMP_temperature;BMP_pressure;BME280_temperature;BME280_humidity;BME280_pressure;Samples;Min_cycle;Max_cycle;Signal;HPM_P1;HPM_P2
2021/07/14 00:00:26;;;;;;;9.23;7.80;;;;;;;;;;4538423;28;20374;-59
2021/07/14 00:02:36;;;;;;;9.60;8.27;;;;;;;;;;4525310;28;20376;-59
2021/07/14 00:04:47;;;;;;;4.80;3.67;;;;;;;;;;4541319;28;20123;-59
2021/07/14 00:06:58;;;;;;;3.78;3.20;;;;;;;;;;4524134;28;20040;-59
2021/07/14 00:09:09;;;;;;;2.47;2.27;;;;;;;;;;4542444;28;20040;-60
2021/07/14 00:11:20;;;;;;;6.22;5.13;;;;;;;;;;4543195;28;21188;-59
2021/07/14 00:13:34;;;;;;;3.77;3.00;;;;;;;;;;4542141;28;20036;-59
2021/07/14 00:23:02;;;;;;;6.47;5.53;;;;;;;;;;4527922;28;20033;-59
2021/07/14 00:25:14;;;;;;;8.00;6.87;;;;;;;;;;4544302;28;20481;-59
2021/07/14 00:27:25;;;;;;;9.02;7.80;;;;;;;;;;4544769;28;20033;-59
2021/07/14 00:29:37;;;;;;;8.80;7.45;;;;;;;;;;4543190;28;20037;-59
2021/07/14 00:31:48;;;;;;;3.83;3.38;;;;;;;;;;4526411;28;20115;-57
2021/07/14 00:33:58;;;;;;;8.50;7.23;;;;;;;;;;4544149;28;20040;-59
2021/07/14 00:36:09;;;;;;;5.63;4.60;;;;;;;;;;4541207;28;20041;-59
2021/07/14 00:38:19;;;;;;;3.88;3.45;;;;;;;;;;4511425;28;20025;-59
2021/07/14 00:40:30;;;;;;;4.40;3.90;;;;;;;;;;4523673;28;20044;-59
2021/07/14 00:42:41;;;;;;;3.33;3.03;;;;;;;;;;4523283;28;20088;-59
2021/07/14 00:44:54;;;;;;;2.50;2.30;;;;;;;;;;4543201;28;20108;-59
2021/07/14 00:47:06;;;;;;;3.30;3.00;;;;;;;;;;4524081;28;20041;-59
2021/07/14 00:49:17;;;;;;;3.22;2.92;;;;;;;;;;4526824;28;20631;-59
2021/07/14 00:51:30;;;;;;;5.22;4.72;;;;;;;;;;4541169;28;20194;-59
2021/07/14 00:53:41;;;;;;;8.48;7.32;;;;;;;;;;4543857;28;20037;-59
2021/07/14 00:55:51;;;;;;;8.30;7.32;;;;;;;;;;4544053;28;20048;-59
2021/07/14 00:58:02;;;;;;;8.60;7.30;;;;;;;;;;4522339;28;20093;-59
2021/07/14 01:00:13;;;;;;;8.77;7.88;;;;;;;;;;4521051;28;20034;-59
2021/07/14 01:02:27;;;;;;;;;;;;;;;;;;4525560;28;20220;-59
2021/07/14 01:04:43;;;;;;;3.80;3.17;;;;;;;;;;4524573;28;19921;-59
2021/07/14 01:06:58;;;;;;;7.00;6.00;;;;;;;;;;4525010;28;21036;-59
2021/07/14 01:09:11;;;;;;;7.15;6.25;;;;;;;;;;4523950;28;20029;-59
2021/07/14 01:11:23;;;;;;;8.10;6.97;;;;;;;;;;4527484;28;20045;-60
2021/07/14 01:13:56;;;;;;;8.18;6.95;;;;;;;;;;4523979;28;20087;-59
2021/07/14 01:16:10;;;;;;;8.30;7.35;;;;;;;;;;4538952;28;20796;-59
2021/07/14 01:18:33;;;;;;;7.82;7.00;;;;;;;;;;4524866;28;20647;-59
2021/07/14 01:21:02;;;;;;;6.00;4.97;;;;;;;;;;4527721;28;20065;-59
2021/07/14 01:23:36;;;;;;;8.23;7.32;;;;;;;;;;4523093;28;20041;-60
2021/07/14 01:26:12;;;;;;;8.82;7.38;;;;;;;;;;4525472;28;20029;-60
2021/07/14 01:28:25;;;;;;;9.07;7.57;;;;;;;;;;4541855;28;20029;-59
2021/07/14 01:30:36;;;;;;;8.50;7.60;;;;;;;;;;4540820;28;20021;-60
2021/07/14 01:32:48;;;;;;;2.78;2.30;;;;;;;;;;4525059;28;20135;-60
2021/07/14 01:35:06;;;;;;;8.45;6.35;;;;;;;;;;4525669;28;22279;-60
2021/07/14 01:37:18;;;;;;;8.45;7.43;;;;;;;;;;4542416;28;20090;-59
2021/07/14 01:39:32;;;;;;;8.63;7.32;;;;;;;;;;4511944;28;20042;-59
2021/07/14 01:41:44;;;;;;;8.45;7.45;;;;;;;;;;4525553;28;20166;-59
2021/07/14 01:43:58;;;;;;;4.60;3.55;;;;;;;;;;4513501;28;20069;-59
2021/07/14 01:46:09;;;;;;;7.38;6.13;;;;;;;;;;4524528;28;20645;-59
2021/07/14 01:48:21;;;;;;;7.82;6.78;;;;;;;;;;4523950;28;20041;-60
2021/07/14 01:50:32;;;;;;;7.95;6.90;;;;;;;;;;4508602;28;20116;-59
2021/07/14 01:52:43;;;;;;;6.18;4.68;;;;;;;;;;4528608;28;20068;-60
2021/07/14 01:54:56;;;;;;;8.13;7.18;;;;;;;;;;4542898;28;20116;-59
2021/07/14 01:57:07;;;;;;;7.07;5.82;;;;;;;;;;4542591;28;20207;-59
2021/07/14 01:59:17;;;;;;;8.77;7.57;;;;;;;;;;4525580;28;20084;-59
2021/07/14 02:01:29;;;;;;;8.20;7.25;;;;;;;;;;4524567;28;20116;-59
2021/07/14 02:03:43;;;;;;;;;;;;;;;;;;4542842;28;20159;-59
2021/07/14 02:05:56;;;;;;;8.30;7.00;;;;;;;;;;4508402;28;19956;-58
2021/07/14 02:08:06;;;;;;;8.45;7.28;;;;;;;;;;4539008;28;20040;-58
2021/07/14 02:10:17;;;;;;;7.97;6.93;;;;;;;;;;4540444;28;20025;-59
2021/07/14 02:12:29;;;;;;;8.73;7.38;;;;;;;;;;4524761;28;20046;-59
2021/07/14 02:14:45;;;;;;;7.20;6.30;;;;;;;;;;4542313;28;20109;-59
2021/07/14 02:16:56;;;;;;;2.15;1.95;;;;;;;;;;4540838;28;20099;-59
2021/07/14 02:19:06;;;;;;;5.63;4.70;;;;;;;;;;4523745;28;21314;-59
2021/07/14 02:21:17;;;;;;;7.93;7.13;;;;;;;;;;4538239;28;20112;-59
2021/07/14 02:23:27;;;;;;;3.87;2.23;;;;;;;;;;4539318;28;23851;-60
2021/07/14 02:25:38;;;;;;;3.07;2.77;;;;;;;;;;4522387;28;20041;-59
2021/07/14 02:27:48;;;;;;;5.37;3.73;;;;;;;;;;4542945;28;20029;-59
2021/07/14 02:29:59;;;;;;;3.60;3.30;;;;;;;;;;4543679;28;20056;-59
2021/07/14 02:32:17;;;;;;;5.43;4.13;;;;;;;;;;4526915;28;20041;-60
2021/07/14 02:34:28;;;;;;;8.18;7.00;;;;;;;;;;4542747;28;20033;-59
2021/07/14 02:36:39;;;;;;;7.57;6.67;;;;;;;;;;4543909;28;20037;-59
2021/07/14 02:38:53;;;;;;;7.77;6.47;;;;;;;;;;4530666;28;20037;-60
2021/07/14 02:41:11;;;;;;;8.10;6.82;;;;;;;;;;4510970;28;20257;-60
2021/07/14 02:43:27;;;;;;;2.97;2.45;;;;;;;;;;4527571;28;20065;-60
2021/07/14 02:45:42;;;;;;;3.88;2.83;;;;;;;;;;4526471;28;20037;-60
2021/07/14 02:47:52;;;;;;;2.40;2.20;;;;;;;;;;4526704;28;20067;-59
2021/07/14 02:50:18;;;;;;;6.05;4.85;;;;;;;;;;4544333;28;20627;-60
2021/07/14 02:52:29;;;;;;;4.30;3.63;;;;;;;;;;4526356;28;20034;-60
2021/07/14 02:54:41;;;;;;;5.35;4.55;;;;;;;;;;4525304;28;20041;-60
2021/07/14 02:57:00;;;;;;;8.38;7.32;;;;;;;;;;4524903;28;20033;-59
2021/07/14 02:59:11;;;;;;;6.80;5.65;;;;;;;;;;4539764;28;20410;-60
2021/07/14 03:01:21;;;;;;;;;;;;;;;;;;4513896;28;20042;-60
2021/07/14 03:03:32;;;;;;;2.80;2.47;;;;;;;;;;4525077;28;19913;-60
2021/07/14 03:05:43;;;;;;;5.35;4.55;;;;;;;;;;4545256;28;20033;-59
2021/07/14 03:07:54;;;;;;;3.92;3.13;;;;;;;;;;4541943;28;20041;-60
2021/07/14 03:10:06;;;;;;;3.10;2.43;;;;;;;;;;4543661;28;20044;-60
2021/07/14 03:12:20;;;;;;;7.20;4.82;;;;;;;;;;4513493;28;20039;-60
2021/07/14 03:14:30;;;;;;;8.55;7.47;;;;;;;;;;4543085;28;20114;-60
2021/07/14 03:16:42;;;;;;;9.13;7.63;;;;;;;;;;4524552;28;20145;-60
2021/07/14 03:18:53;;;;;;;7.47;6.55;;;;;;;;;;4542324;28;20037;-60
2021/07/14 03:21:03;;;;;;;2.05;1.85;;;;;;;;;;4525259;28;20038;-61
2021/07/14 03:23:15;;;;;;;7.40;6.57;;;;;;;;;;4527300;28;20025;-61
2021/07/14 03:25:26;;;;;;;8.90;8.00;;;;;;;;;;4544093;28;20041;-60
2021/07/14 03:27:37;;;;;;;2.43;2.23;;;;;;;;;;4525657;28;20025;-60
2021/07/14 03:29:50;;;;;;;3.03;2.72;;;;;;;;;;4526423;28;20510;-60
2021/07/14 03:32:02;;;;;;;2.95;2.35;;;;;;;;;;4543670;28;20037;-60
2021/07/14 03:34:13;;;;;;;2.45;2.25;;;;;;;;;;4542321;28;20667;-60
2021/07/14 03:36:23;;;;;;;5.50;4.33;;;;;;;;;;4544901;28;20068;-60
2021/07/14 03:38:35;;;;;;;3.33;2.93;;;;;;;;;;4526456;28;20490;-60
2021/07/14 03:40:45;;;;;;;2.55;2.35;;;;;;;;;;4529558;28;20021;-60
2021/07/14 03:42:57;;;;;;;2.47;2.20;;;;;;;;;;4543426;28;20033;-60
2021/07/14 03:45:08;;;;;;;2.25;2.05;;;;;;;;;;4523247;28;20228;-60
2021/07/14 03:47:18;;;;;;;;;;;;;;;;;;4527273;28;20033;-60
2021/07/14 03:49:29;;;;;;;9.00;7.67;;;;;;;;;;4527141;28;19929;-60
2021/07/14 03:51:44;;;;;;;8.70;7.43;;;;;;;;;;4526416;28;20509;-59
2021/07/14 03:53:55;;;;;;;10.30;8.48;;;;;;;;;;4546017;28;20476;-60
2021/07/14 03:56:05;;;;;;;5.13;4.25;;;;;;;;;;4544007;28;20032;-59
2021/07/14 03:58:20;;;;;;;9.27;8.27;;;;;;;;;;4543021;28;20108;-60
2021/07/14 04:00:31;;;;;;;2.10;1.90;;;;;;;;;;4525202;28;20100;-60
2021/07/14 04:02:44;;;;;;;8.40;7.40;;;;;;;;;;4544052;28;20143;-60
2021/07/14 04:04:55;;;;;;;9.73;8.57;;;;;;;;;;4543753;28;20801;-59
2021/07/14 04:07:16;;;;;;;9.80;8.57;;;;;;;;;;4544996;28;20052;-60
2021/07/14 04:09:27;;;;;;;2.28;2.08;;;;;;;;;;4530334;28;20156;-60
2021/07/14 04:11:38;;;;;;;5.27;4.53;;;;;;;;;;4541659;28;20041;-60
2021/07/14 04:13:49;;;;;;;3.15;2.85;;;;;;;;;;4542826;28;20045;-60
2021/07/14 04:15:59;;;;;;;2.60;2.40;;;;;;;;;;4543564;28;20040;-60
2021/07/14 04:18:12;;;;;;;2.70;2.50;;;;;;;;;;4544549;28;20504;-60
2021/07/14 04:20:22;;;;;;;5.85;4.88;;;;;;;;;;4542967;28;20042;-60
2021/07/14 04:22:33;;;;;;;10.30;7.83;;;;;;;;;;4543414;28;20070;-60
2021/07/14 04:24:43;;;;;;;9.37;8.37;;;;;;;;;;4541412;28;20036;-60
2021/07/14 04:26:54;;;;;;;9.00;8.10;;;;;;;;;;4542693;28;20037;-60
2021/07/14 04:29:05;;;;;;;2.40;2.20;;;;;;;;;;4540972;28;20026;-61
2021/07/14 04:31:15;;;;;;;9.48;8.45;;;;;;;;;;4542667;28;20769;-60
2021/07/14 04:33:25;;;;;;;9.50;8.50;;;;;;;;;;4541814;28;20033;-60
2021/07/14 04:35:36;;;;;;;10.63;9.40;;;;;;;;;;4545071;28;20036;-60
2021/07/14 04:37:49;;;;;;;9.93;8.60;;;;;;;;;;4525184;28;20038;-59
2021/07/14 04:40:00;;;;;;;9.77;8.55;;;;;;;;;;4539710;28;20056;-60
2021/07/14 04:42:10;;;;;;;9.37;8.37;;;;;;;;;;4527063;28;20084;-60
2021/07/14 04:44:33;;;;;;;8.17;7.03;;;;;;;;;;4542051;28;20124;-60
2021/07/14 04:46:43;;;;;;;10.40;8.70;;;;;;;;;;4541002;28;20080;-60
2021/07/14 04:48:54;;;;;;;10.17;8.80;;;;;;;;;;4524082;28;20123;-60
2021/07/14 04:51:04;;;;;;;10.10;9.10;;;;;;;;;;4523550;28;20040;-60
2021/07/14 04:53:15;;;;;;;9.97;8.97;;;;;;;;;;4524994;28;20037;-60
2021/07/14 04:55:25;;;;;;;1.77;1.67;;;;;;;;;;4540716;28;20037;-60
2021/07/14 04:57:35;;;;;;;1.53;1.43;;;;;;;;;;4540523;28;20115;-60
2021/07/14 04:59:46;;;;;;;6.80;5.50;;;;;;;;;;4509434;28;20054;-59
2021/07/14 05:01:56;;;;;;;9.90;8.90;;;;;;;;;;4540953;28;20485;-60
2021/07/14 05:04:07;;;;;;;10.57;9.30;;;;;;;;;;4541131;28;20408;-60
2021/07/14 05:06:18;;;;;;;10.70;9.60;;;;;;;;;;4522075;28;20033;-60
2021/07/14 05:08:28;;;;;;;10.02;9.02;;;;;;;;;;4541061;28;20039;-60
2021/07/14 05:10:39;;;;;;;11.07;9.87;;;;;;;;;;4523390;28;20037;-60
2021/07/14 05:12:49;;;;;;;11.30;9.77;;;;;;;;;;4542728;28;20038;-59
2021/07/14 05:15:00;;;;;;;10.97;9.87;;;;;;;;;;4543017;28;20025;-60
2021/07/14 05:17:10;;;;;;;11.23;10.03;;;;;;;;;;4540822;28;20021;-60
2021/07/14 05:19:21;;;;;;;11.27;10.07;;;;;;;;;;4540920;28;20041;-60
2021/07/14 05:21:31;;;;;;;11.03;9.67;;;;;;;;;;4522637;28;20389;-60
2021/07/14 05:23:42;;;;;;;11.53;10.33;;;;;;;;;;4522175;28;20548;-60
2021/07/14 05:25:52;;;;;;;11.30;10.10;;;;;;;;;;4542674;28;20033;-60
2021/07/14 05:28:04;;;;;;;11.87;10.67;;;;;;;;;;4522529;28;20699;-60
2021/07/14 05:30:15;;;;;;;11.55;10.35;;;;;;;;;;4524143;28;20115;-60
2021/07/14 05:32:25;;;;;;;12.27;10.80;;;;;;;;;;4542631;28;20159;-60
2021/07/14 05:34:36;;;;;;;11.17;9.87;;;;;;;;;;4543021;28;21195;-60
2021/07/14 05:36:46;;;;;;;12.50;10.50;;;;;;;;;;4542439;28;20456;-60
2021/07/14 05:38:58;;;;;;;12.50;10.30;;;;;;;;;;4540531;28;20055;-60
2021/07/14 05:41:09;;;;;;;12.23;10.25;;;;;;;;;;4538727;28;20029;-60
2021/07/14 05:43:20;;;;;;;11.93;10.57;;;;;;;;;;4523610;28;20055;-60
2021/07/14 05:45:30;;;;;;;12.40;11.10;;;;;;;;;;4541312;28;20027;-60
2021/07/14 05:47:41;;;;;;;13.40;11.30;;;;;;;;;;4523086;28;20037;-61
2021/07/14 05:49:52;;;;;;;14.27;12.30;;;;;;;;;;4538984;28;20713;-60
2021/07/14 05:52:03;;;;;;;13.43;11.93;;;;;;;;;;4539846;28;20488;-59
2021/07/14 05:54:14;;;;;;;2.33;2.13;;;;;;;;;;4539976;28;20444;-59
2021/07/14 05:56:25;;;;;;;10.75;8.45;;;;;;;;;;4540336;28;20025;-58
2021/07/14 05:58:36;;;;;;;13.20;11.30;;;;;;;;;;4523978;28;20072;-59
2021/07/14 06:00:46;;;;;;;13.43;11.63;;;;;;;;;;4537428;28;20056;-58
2021/07/14 06:02:57;;;;;;;14.10;12.00;;;;;;;;;;4542778;28;20033;-59
2021/07/14 06:05:09;;;;;;;12.80;11.23;;;;;;;;;;4528630;28;20485;-58
2021/07/14 06:07:20;;;;;;;11.32;8.93;;;;;;;;;;4546075;28;20032;-58
2021/07/14 06:09:30;;;;;;;13.47;10.53;;;;;;;;;;4547742;28;20037;-58
2021/07/14 06:11:41;;;;;;;12.00;10.37;;;;;;;;;;4526458;28;20094;-59
2021/07/14 06:13:51;;;;;;;11.77;10.53;;;;;;;;;;4544273;28;20087;-59
2021/07/14 06:16:02;;;;;;;2.27;2.07;;;;;;;;;;4544437;28;20339;-59
2021/07/14 06:18:13;;;;;;;2.63;2.17;;;;;;;;;;4528218;28;20037;-59
2021/07/14 06:20:23;;;;;;;9.57;7.30;;;;;;;;;;4546834;28;20302;-59
2021/07/14 06:22:34;;;;;;;11.43;10.13;;;;;;;;;;4547800;28;20029;-59
2021/07/14 06:24:44;;;;;;;12.05;10.30;;;;;;;;;;4547037;28;20036;-60
2021/07/14 06:26:55;;;;;;;12.23;10.63;;;;;;;;;;4547306;28;20024;-59
2021/07/14 06:29:06;;;;;;;2.10;1.90;;;;;;;;;;4546732;28;20041;-59
2021/07/14 06:31:16;;;;;;;12.13;10.03;;;;;;;;;;4547678;28;20056;-59
2021/07/14 06:33:28;;;;;;;12.77;10.63;;;;;;;;;;4545540;28;20272;-59
2021/07/14 06:35:38;;;;;;;12.18;10.23;;;;;;;;;;4546760;28;20041;-59
2021/07/14 06:37:50;;;;;;;12.47;10.37;;;;;;;;;;4528381;28;20038;-59
2021/07/14 06:40:00;;;;;;;;;;;;;;;;;;4528785;28;20132;-59
2021/07/14 06:42:11;;;;;;;9.30;7.50;;;;;;;;;;4548269;28;19927;-59
2021/07/14 06:44:22;;;;;;;11.50;9.73;;;;;;;;;;4547211;28;20507;-59
2021/07/14 06:46:32;;;;;;;12.52;11.13;;;;;;;;;;4526225;28;20042;-59
2021/07/14 06:48:43;;;;;;;11.63;10.43;;;;;;;;;;4547135;28;20653;-59
2021/07/14 06:50:53;;;;;;;11.70;10.30;;;;;;;;;;4546089;28;20043;-59
2021/07/14 06:53:04;;;;;;;11.70;10.40;;;;;;;;;;4548125;28;20145;-59
2021/07/14 06:55:14;;;;;;;11.73;10.33;;;;;;;;;;4547320;28;20104;-59
2021/07/14 06:57:25;;;;;;;11.80;10.10;;;;;;;;;;4526335;28;21137;-59
2021/07/14 06:59:35;;;;;;;12.98;10.50;;;;;;;;;;4547634;28;20049;-59
2021/07/14 07:01:46;;;;;;;4.07;3.17;;;;;;;;;;4526168;28;20029;-59
2021/07/14 07:03:56;;;;;;;9.03;7.53;;;;;;;;;;4548512;28;20139;-59
2021/07/14 07:06:07;;;;;;;11.80;10.27;;;;;;;;;;4548728;28;20559;-59
2021/07/14 07:08:17;;;;;;;12.20;10.50;;;;;;;;;;4544435;28;20033;-59
2021/07/14 07:10:28;;;;;;;11.63;10.03;;;;;;;;;;4545685;28;20033;-59
2021/07/14 07:12:38;;;;;;;4.17;3.23;;;;;;;;;;4508374;28;20569;-59
2021/07/14 07:14:49;;;;;;;11.37;9.60;;;;;;;;;;4521456;28;20040;-59
2021/07/14 07:16:59;;;;;;;11.73;10.30;;;;;;;;;;4522815;28;20045;-58
2021/07/14 07:19:10;;;;;;;11.63;10.10;;;;;;;;;;4544330;28;20392;-58
2021/07/14 07:21:20;;;;;;;12.03;10.73;;;;;;;;;;4542911;28;20040;-58
2021/07/14 07:23:31;;;;;;;13.60;11.10;;;;;;;;;;4545596;28;20079;-59
2021/07/14 07:25:42;;;;;;;12.30;10.82;;;;;;;;;;4545816;28;20483;-59
2021/07/14 07:27:55;;;;;;;;;;;;;;;;;;4544219;28;20029;-59
2021/07/14 07:30:08;;;;;;;11.90;10.55;;;;;;;;;;4543959;28;19962;-59
2021/07/14 07:32:18;;;;;;;12.00;10.45;;;;;;;;;;4540058;28;21224;-59
2021/07/14 07:34:29;;;;;;;12.63;10.53;;;;;;;;;;4541964;28;20103;-59
2021/07/14 07:36:39;;;;;;;13.50;11.53;;;;;;;;;;4543770;28;20106;-59
2021/07/14 07:38:50;;;;;;;14.73;11.93;;;;;;;;;;4540217;28;22566;-59
2021/07/14 07:41:00;;;;;;;13.70;11.53;;;;;;;;;;4510030;28;20141;-59
2021/07/14 07:43:10;;;;;;;6.97;5.97;;;;;;;;;;4522515;28;20116;-58
2021/07/14 07:45:21;;;;;;;11.03;9.10;;;;;;;;;;4528550;28;20057;-60
2021/07/14 07:47:32;;;;;;;12.43;10.97;;;;;;;;;;4523816;28;20064;-59
2021/07/14 07:49:46;;;;;;;14.13;11.43;;;;;;;;;;4541514;28;20258;-60
2021/07/14 07:51:56;;;;;;;13.45;11.05;;;;;;;;;;4522869;28;20076;-59
2021/07/14 07:54:07;;;;;;;12.07;10.10;;;;;;;;;;4545256;28;20544;-59
2021/07/14 07:56:17;;;;;;;13.97;11.40;;;;;;;;;;4545194;28;20523;-59
2021/07/14 07:58:28;;;;;;;13.20;11.20;;;;;;;;;;4543114;28;20991;-59
2021/07/14 08:00:38;;;;;;;13.20;11.13;;;;;;;;;;4544831;28;20564;-59
2021/07/14 08:02:49;;;;;;;11.87;10.50;;;;;;;;;;4524157;28;20037;-59
2021/07/14 08:04:59;;;;;;;13.02;10.70;;;;;;;;;;4541409;28;20138;-59
2021/07/14 08:07:10;;;;;;;12.43;10.60;;;;;;;;;;4525285;28;20052;-60
2021/07/14 08:09:21;;;;;;;11.00;9.37;;;;;;;;;;4540702;28;20052;-59
2021/07/14 08:11:32;;;;;;;12.55;10.10;;;;;;;;;;4544722;28;20533;-60
2021/07/14 08:13:42;;;;;;;12.98;10.55;;;;;;;;;;4542990;28;20151;-59
2021/07/14 08:15:56;;;;;;;12.17;10.37;;;;;;;;;;4543962;28;20086;-61
2021/07/14 08:18:06;;;;;;;11.60;9.40;;;;;;;;;;4540890;28;20110;-60
2021/07/14 08:20:17;;;;;;;6.27;4.30;;;;;;;;;;4511187;28;20085;-59
2021/07/14 08:22:27;;;;;;;8.50;6.80;;;;;;;;;;4525146;28;20040;-60
2021/07/14 08:24:38;;;;;;;12.43;9.57;;;;;;;;;;4541824;28;20327;-60
2021/07/14 08:26:48;;;;;;;12.57;10.10;;;;;;;;;;4524026;28;20138;-60
2021/07/14 08:28:58;;;;;;;10.80;9.00;;;;;;;;;;4541951;28;20086;-60
2021/07/14 08:31:09;;;;;;;11.60;10.00;;;;;;;;;;4525153;28;20160;-60
2021/07/14 08:33:20;;;;;;;11.63;9.45;;;;;;;;;;4526645;28;20037;-59
2021/07/14 08:35:30;;;;;;;11.47;9.20;;;;;;;;;;4540550;28;20029;-60
2021/07/14 08:37:41;;;;;;;11.87;9.33;;;;;;;;;;4545247;28;20029;-60
2021/07/14 08:39:53;;;;;;;10.63;8.80;;;;;;;;;;4510703;28;20119;-59
2021/07/14 08:42:04;;;;;;;6.40;4.38;;;;;;;;;;4543041;28;20082;-60
2021/07/14 08:44:14;;;;;;;11.88;9.25;;;;;;;;;;4508720;28;20070;-59
2021/07/14 08:46:25;;;;;;;10.27;8.13;;;;;;;;;;4523194;28;20038;-60
2021/07/14 08:48:36;;;;;;;10.90;8.63;;;;;;;;;;4525572;28;20032;-59
2021/07/14 08:50:48;;;;;;;6.53;4.73;;;;;;;;;;4542745;28;20508;-60
2021/07/14 08:52:59;;;;;;;9.43;7.13;;;;;;;;;;4526515;28;20372;-60
2021/07/14 08:55:12;;;;;;;11.43;8.90;;;;;;;;;;4542810;28;20120;-60
2021/07/14 08:57:23;;;;;;;12.25;9.27;;;;;;;;;;4543441;28;20111;-60
2021/07/14 08:59:34;;;;;;;5.20;3.92;;;;;;;;;;4542325;28;20110;-60
2021/07/14 09:01:45;;;;;;;3.55;2.80;;;;;;;;;;4508032;28;20096;-60
2021/07/14 09:03:55;;;;;;;7.93;5.90;;;;;;;;;;4541055;28;20654;-59
2021/07/14 09:06:08;;;;;;;11.40;9.00;;;;;;;;;;4526442;28;20252;-60
2021/07/14 09:08:18;;;;;;;10.75;9.05;;;;;;;;;;4544142;28;20043;-60
2021/07/14 09:10:29;;;;;;;12.43;9.67;;;;;;;;;;4509839;28;20041;-60
2021/07/14 09:12:45;;;;;;;9.43;7.45;;;;;;;;;;4545449;28;20853;-60
2021/07/14 09:14:55;;;;;;;5.35;3.95;;;;;;;;;;4541984;28;20640;-60
2021/07/14 09:17:24;;;;;;;4.57;3.30;;;;;;;;;;4525961;28;20124;-58
2021/07/14 09:19:35;;;;;;;11.48;8.63;;;;;;;;;;4541103;28;20140;-58
2021/07/14 09:21:45;;;;;;;10.97;8.73;;;;;;;;;;4540581;28;20075;-59
2021/07/14 09:23:56;;;;;;;9.53;7.57;;;;;;;;;;4542522;28;20032;-59
2021/07/14 09:26:06;;;;;;;13.07;9.27;;;;;;;;;;4542067;28;20037;-59
2021/07/14 09:28:20;;;;;;;12.70;9.90;;;;;;;;;;4521901;28;20050;-59
2021/07/14 09:30:31;;;;;;;12.07;9.50;;;;;;;;;;4524315;28;20037;-59
2021/07/14 09:32:58;;;;;;;10.75;8.38;;;;;;;;;;4540410;28;20033;-59
2021/07/14 09:35:09;;;;;;;10.68;7.22;;;;;;;;;;4541701;28;20029;-59
2021/07/14 09:37:21;;;;;;;12.80;10.07;;;;;;;;;;4540232;28;20723;-59
2021/07/14 09:39:36;;;;;;;11.05;8.93;;;;;;;;;;4542523;28;20667;-59
2021/07/14 09:41:47;;;;;;;11.57;9.63;;;;;;;;;;4539201;28;20033;-59
2021/07/14 09:43:57;;;;;;;12.53;10.03;;;;;;;;;;4522305;28;20040;-59
2021/07/14 09:46:12;;;;;;;11.53;9.30;;;;;;;;;;4541431;28;20033;-59
2021/07/14 09:48:25;;;;;;;12.45;9.52;;;;;;;;;;4538049;28;20036;-59
2021/07/14 09:50:48;;;;;;;8.88;6.63;;;;;;;;;;4541451;28;21823;-59
2021/07/14 09:53:04;;;;;;;4.65;3.30;;;;;;;;;;4522738;28;20047;-59
2021/07/14 09:55:15;;;;;;;10.68;8.38;;;;;;;;;;4524510;28;20033;-59
2021/07/14 09:57:25;;;;;;;12.73;10.00;;;;;;;;;;4539473;28;20461;-59
2021/07/14 09:59:36;;;;;;;13.97;10.50;;;;;;;;;;4541131;28;20045;-59
2021/07/14 10:01:48;;;;;;;14.30;10.67;;;;;;;;;;4510590;28;20140;-59
2021/07/14 10:03:59;;;;;;;12.75;10.43;;;;;;;;;;4543115;28;20055;-60
2021/07/14 10:06:12;;;;;;;12.33;9.83;;;;;;;;;;4524277;28;20033;-59
2021/07/14 10:08:22;;;;;;;11.80;9.23;;;;;;;;;;4506409;28;20582;-59
2021/07/14 10:10:34;;;;;;;12.38;9.40;;;;;;;;;;4538971;28;20097;-59
2021/07/14 10:12:46;;;;;;;13.40;10.30;;;;;;;;;;4542295;28;20124;-59
2021/07/14 10:15:19;;;;;;;13.55;10.15;;;;;;;;;;4540538;28;20025;-59
2021/07/14 10:17:37;;;;;;;13.73;10.60;;;;;;;;;;4540175;28;20037;-59
2021/07/14 10:19:48;;;;;;;5.90;4.43;;;;;;;;;;4540554;28;20099;-59
2021/07/14 10:21:59;;;;;;;12.40;9.47;;;;;;;;;;4543466;28;20087;-59
2021/07/14 10:24:11;;;;;;;;;;;;;;;;;;4525604;28;20033;-59
2021/07/14 10:26:22;;;;;;;7.63;4.88;;;;;;;;;;4522846;28;19924;-60
2021/07/14 10:28:32;;;;;;;11.32;8.50;;;;;;;;;;4523658;28;20438;-59
2021/07/14 10:30:43;;;;;;;13.43;11.03;;;;;;;;;;4522015;28;20106;-60
2021/07/14 10:32:54;;;;;;;13.27;10.57;;;;;;;;;;4522395;28;20038;-59
2021/07/14 10:35:05;;;;;;;14.43;11.00;;;;;;;;;;4539083;28;20041;-60
2021/07/14 10:37:15;;;;;;;13.82;11.23;;;;;;;;;;4524023;28;20029;-59
2021/07/14 10:39:27;;;;;;;13.07;10.60;;;;;;;;;;4524583;28;20041;-59
2021/07/14 10:41:38;;;;;;;7.75;4.63;;;;;;;;;;4544013;28;20095;-60
2021/07/14 10:43:50;;;;;;;13.93;10.80;;;;;;;;;;4523428;28;20087;-59
2021/07/14 10:46:01;;;;;;;13.63;10.52;;;;;;;;;;4542562;28;20813;-59
2021/07/14 10:48:15;;;;;;;5.77;4.40;;;;;;;;;;4542704;28;20035;-60
2021/07/14 10:50:26;;;;;;;8.90;6.45;;;;;;;;;;4525534;28;20256;-59
2021/07/14 10:52:37;;;;;;;;;;;;;;;;;;4541338;28;20040;-59
2021/07/14 10:54:48;;;;;;;12.20;9.48;;;;;;;;;;4541379;28;19917;-59
2021/07/14 10:57:01;;;;;;;12.63;9.83;;;;;;;;;;4524613;28;20083;-59
2021/07/14 10:59:13;;;;;;;12.60;10.23;;;;;;;;;;4527942;28;20248;-59
2021/07/14 11:01:56;;;;;;;12.23;10.45;;;;;;;;;;4526887;28;20064;-59
2021/07/14 11:04:19;;;;;;;4.88;3.67;;;;;;;;;;4519104;28;20041;-59
2021/07/14 11:06:30;;;;;;;9.63;7.55;;;;;;;;;;4541927;28;20041;-60
2021/07/14 11:08:48;;;;;;;10.55;7.15;;;;;;;;;;4540134;28;20581;-58
2021/07/14 11:10:59;;;;;;;5.63;3.88;;;;;;;;;;4514084;28;20048;-59
2021/07/14 11:13:30;;;;;;;6.03;3.83;;;;;;;;;;4544800;28;20072;-60
2021/07/14 11:15:40;;;;;;;4.63;3.17;;;;;;;;;;4543502;28;20631;-59
2021/07/14 11:17:50;;;;;;;4.53;2.40;;;;;;;;;;4543273;28;20048;-59
2021/07/14 11:20:09;;;;;;;5.17;2.40;;;;;;;;;;4544604;28;20712;-59
2021/07/14 11:22:45;;;;;;;3.03;2.03;;;;;;;;;;4526325;28;20040;-59
2021/07/14 11:24:56;;;;;;;2.83;1.73;;;;;;;;;;4526832;28;20753;-59
2021/07/14 11:27:19;;;;;;;2.17;1.50;;;;;;;;;;4513615;28;20040;-59
2021/07/14 11:29:37;;;;;;;2.53;1.58;;;;;;;;;;4543631;28;20037;-59
2021/07/14 11:31:48;;;;;;;3.22;1.77;;;;;;;;;;4543314;28;20045;-59
2021/07/14 11:34:29;;;;;;;2.37;1.53;;;;;;;;;;4543420;28;20036;-59
2021/07/14 11:36:40;;;;;;;1.95;1.30;;;;;;;;;;4543690;28;20820;-60
2021/07/14 11:38:55;;;;;;;1.73;1.35;;;;;;;;;;4525617;28;20048;-59
2021/07/14 11:41:20;;;;;;;2.35;1.35;;;;;;;;;;4510145;28;20042;-60
2021/07/14 11:43:42;;;;;;;1.90;1.30;;;;;;;;;;4525807;28;20064;-59
2021/07/14 11:45:55;;;;;;;1.42;1.30;;;;;;;;;;4544566;28;20075;-59
2021/07/14 11:48:10;;;;;;;1.92;1.30;;;;;;;;;;4543751;28;20040;-59
2021/07/14 11:50:46;;;;;;;2.30;1.27;;;;;;;;;;4525062;28;21031;-58
2021/07/14 11:52:56;;;;;;;2.20;1.20;;;;;;;;;;4543271;28;21045;-59
2021/07/14 11:55:22;;;;;;;2.20;1.10;;;;;;;;;;4541397;28;20068;-58
2021/07/14 11:57:39;;;;;;;1.63;1.00;;;;;;;;;;4539242;28;20144;-58
2021/07/14 12:00:08;;;;;;;1.80;0.90;;;;;;;;;;4524337;28;20536;-58
2021/07/14 12:02:20;;;;;;;0.70;0.70;;;;;;;;;;4524757;28;20131;-58
2021/07/14 12:04:33;;;;;;;0.70;0.70;;;;;;;;;;4542134;28;20568;-59
2021/07/14 12:06:48;;;;;;;1.13;0.73;;;;;;;;;;4526764;28;20033;-58
2021/07/14 12:08:58;;;;;;;0.90;0.63;;;;;;;;;;4542851;28;20063;-58
2021/07/14 12:11:09;;;;;;;0.80;0.50;;;;;;;;;;4543664;28;20039;-59
2021/07/14 12:13:23;;;;;;;1.10;0.60;;;;;;;;;;4544925;28;20037;-59
2021/07/14 12:15:44;;;;;;;1.27;0.55;;;;;;;;;;4544848;28;20055;-58
2021/07/14 12:18:05;;;;;;;1.70;0.60;;;;;;;;;;4543664;28;20029;-58
2021/07/14 12:20:16;;;;;;;0.65;0.40;;;;;;;;;;4521744;28;20046;-57
2021/07/14 12:22:31;;;;;;;0.70;0.40;;;;;;;;;;4524354;28;20029;-59
2021/07/14 12:24:56;;;;;;;0.88;0.40;;;;;;;;;;4542573;28;20252;-59
2021/07/14 12:27:13;;;;;;;0.93;0.50;;;;;;;;;;4524197;28;20037;-59
2021/07/14 12:29:24;;;;;;;1.95;0.50;;;;;;;;;;4540884;28;20563;-59
2021/07/14 12:31:34;;;;;;;0.97;0.40;;;;;;;;;;4524162;28;20111;-59
2021/07/14 12:33:50;;;;;;;0.70;0.40;;;;;;;;;;4521966;28;20034;-59
2021/07/14 12:36:01;;;;;;;0.38;0.35;;;;;;;;;;4541545;28;20033;-59
2021/07/14 12:38:14;;;;;;;0.75;0.50;;;;;;;;;;4509498;28;20036;-59
2021/07/14 12:40:37;;;;;;;0.47;0.38;;;;;;;;;;4543027;28;20044;-59
2021/07/14 12:42:47;;;;;;;0.20;0.20;;;;;;;;;;4537277;28;20041;-59
2021/07/14 12:44:58;;;;;;;0.30;0.30;;;;;;;;;;4540764;28;20042;-59
2021/07/14 12:47:13;;;;;;;0.33;0.30;;;;;;;;;;4542458;28;20068;-59
2021/07/14 12:49:23;;;;;;;0.30;0.30;;;;;;;;;;4525575;28;20040;-59
2021/07/14 12:51:34;;;;;;;0.63;0.30;;;;;;;;;;4544678;28;20424;-59
2021/07/14 12:53:55;;;;;;;0.20;0.20;;;;;;;;;;4544266;28;20037;-58
2021/07/14 12:56:05;;;;;;;0.93;0.30;;;;;;;;;;4524902;28;20040;-58
2021/07/14 12:58:20;;;;;;;0.33;0.20;;;;;;;;;;4523107;28;20083;-58
2021/07/14 13:00:31;;;;;;;0.30;0.30;;;;;;;;;;4529125;28;20068;-59
2021/07/14 13:02:43;;;;;;;0.20;0.20;;;;;;;;;;4520946;28;20061;-59
2021/07/14 13:04:59;;;;;;;0.30;0.20;;;;;;;;;;4544427;28;21006;-58
2021/07/14 13:07:10;;;;;;;0.47;0.20;;;;;;;;;;4525556;28;20132;-58
2021/07/14 13:09:21;;;;;;;0.20;0.20;;;;;;;;;;4525875;28;20532;-59
2021/07/14 13:11:31;;;;;;;0.10;0.10;;;;;;;;;;4524043;28;20113;-59
2021/07/14 13:13:46;;;;;;;0.20;0.20;;;;;;;;;;4521725;28;20398;-59
2021/07/14 13:15:58;;;;;;;0.10;0.10;;;;;;;;;;4540345;28;20048;-58
2021/07/14 13:18:11;;;;;;;1.23;0.20;;;;;;;;;;4540094;28;20921;-58